Aeroporto :
LOGIN :

Iscrizione | Disclaimer

   EN    FR    IT 

 










Sommario :    VFR   VFR Marginale   IFR   IFR Intensivo   IFR Molto Intensivo
Visibilità : 
Base nubi : 
>= 8 km
>= 3000ft
5 / 8 km
1000 / 3000 ft
1500m / 5 km
500 / 1000 ft
800 / 1500m
200 / 500 ft
< 800m
< 200 ft
Simboli :   Temporali  Nebbia  Neve Forte  Precipitazioni Forti  Vento > 20 kt
SIGMETs :   Varie  Temporali  Ghiacco  Turbolenza  Onda orograficha  Ceneri Vulcaniche






- Altitudine del aeroporto : 50 ft
- Codice IATA : KOI


EGPA - Kirkwall

ULTIMO METAR :
  • 132320Z AUTO 26017KT 9999 BKN003/// OVC016/// 12/11 Q1010 RERA

METARs OBSOLETI :
  • 132250Z AUTO 26017KT 4100 -DZ BKN002/// OVC029/// 12/11 Q1010
  • 132220Z AUTO 26018KT 7000 -RA BKN004/// OVC039/// 12/11 Q1010 RERA
  • 132150Z AUTO 26018KT 7000 -RA BKN004/// OVC013/// 12/11 Q1010
  • 132120Z AUTO 25017KT 7000 -RA BKN003/// OVC017/// 12/11 Q1010

TAF TAF EGPA
Valido dal 13 a 21 ore il 14 a 06 ore UTC


131958Z 1321/1406 27012KT 9999 FEW012
TEMPO 1321/1406 4000 RADZ BKN008
PROB30
TEMPO 1321/1406 25015G25KT 2500 DZ BKN004



MetMap, La meteo Aeronautica in un colpo d'occhio ! - Copyright ORBIFLY Dicembre 2007 - Disclaimer

ORBIFLY MET'MAP TEAM :

Programmazione e sviluppo : Alexandra Zaïnal
Concezione : Baudouin d'Aumeries
Aiuto per la programmazione : Marc-Olivier Méhu
Supporto tecnico e logistico : Manuel Goepfert
Aiuto per la traduzione : Arnaldo La Scala

Contatto : metmap@orbifly.com




FONTI E CREDITI :

   NOAA